Time;durP1;ratioP1;P1;durP2;ratioP2;P2;SDS_P1;SDS_P2;PMS_P1;PMS_P2;Temp;Humidity;BMP_temperature;BMP_pressure;BME280_temperature;BME280_humidity;BME280_pressure;Samples;Min_cycle;Max_cycle;Signal;HPM_P1;HPM_P2
2022/10/05 00:01:48;;;;;;;0.20;0.20;;;10.10;99.90;;;;;;5051444;28;20477;-75
2022/10/05 00:04:16;;;;;;;0.20;0.20;;;10.00;99.90;;;;;;5051414;28;20052;-74
2022/10/05 00:06:48;;;;;;;0.20;0.20;;;9.90;99.90;;;;;;5051175;28;20024;-75
2022/10/05 00:09:20;;;;;;;0.20;0.20;;;9.90;99.90;;;;;;5050091;28;20017;-75
2022/10/05 00:11:46;;;;;;;0.20;0.20;;;9.80;99.90;;;;;;5033645;28;20052;-74
2022/10/05 00:14:38;;;;;;;0.20;0.20;;;9.90;99.90;;;;;;5051386;28;20036;-74
2022/10/05 00:17:04;;;;;;;0.20;0.20;;;10.00;99.90;;;;;;5049603;28;20037;-74
2022/10/05 00:19:36;;;;;;;0.15;0.15;;;9.90;99.90;;;;;;5052929;28;20029;-74
2022/10/05 00:22:16;;;;;;;0.10;0.10;;;9.80;99.90;;;;;;5053706;28;20514;-75
2022/10/05 00:24:43;;;;;;;0.10;0.10;;;9.90;99.90;;;;;;5054982;28;20017;-74
2022/10/05 00:27:32;;;;;;;0.20;0.20;;;9.80;99.90;;;;;;5053773;28;20068;-74
2022/10/05 00:30:01;;;;;;;0.10;0.10;;;9.80;99.90;;;;;;5053564;28;20400;-74
2022/10/05 00:32:27;;;;;;;0.20;0.20;;;9.90;99.90;;;;;;5054710;28;20392;-75
2022/10/05 00:34:53;;;;;;;0.20;0.20;;;9.90;99.90;;;;;;5054672;28;20021;-75
2022/10/05 00:37:19;;;;;;;0.20;0.20;;;9.80;99.90;;;;;;5054771;28;20040;-75
2022/10/05 00:39:45;;;;;;;0.10;0.10;;;9.70;99.90;;;;;;5054671;28;20484;-74
2022/10/05 00:42:44;;;;;;;0.10;0.10;;;9.90;99.90;;;;;;5054713;28;20028;-74
2022/10/05 00:45:34;;;;;;;0.75;0.75;;;10.00;99.90;;;;;;5054418;28;20021;-74
2022/10/05 00:48:18;;;;;;;0.13;0.13;;;10.00;99.90;;;;;;5054678;28;20452;-74
2022/10/05 00:50:57;;;;;;;0.10;0.10;;;10.00;99.90;;;;;;5054623;28;20384;-75
2022/10/05 00:53:59;;;;;;;0.10;0.10;;;10.00;99.90;;;;;;5054527;28;20033;-74
2022/10/05 00:56:55;;;;;;;0.20;0.20;;;10.10;99.90;;;;;;5053106;28;20033;-74
2022/10/05 00:59:26;;;;;;;0.10;0.10;;;10.00;99.90;;;;;;5054327;28;20033;-75
2022/10/05 01:01:59;;;;;;;0.10;0.10;;;10.00;99.90;;;;;;5054578;28;20021;-75
2022/10/05 01:04:30;;;;;;;0.20;0.20;;;9.70;99.90;;;;;;5052941;28;20103;-74
2022/10/05 01:07:07;;;;;;;0.10;0.10;;;9.80;99.90;;;;;;5054122;28;20055;-75
2022/10/05 01:09:40;;;;;;;0.20;0.20;;;9.50;99.90;;;;;;5054288;28;20037;-74
2022/10/05 01:12:45;;;;;;;0.15;0.15;;;9.50;99.90;;;;;;5054211;28;20439;-74
2022/10/05 01:15:44;;;;;;;0.20;0.20;;;9.40;99.90;;;;;;5052656;28;20542;-75
2022/10/05 01:18:33;;;;;;;0.10;0.10;;;9.50;99.90;;;;;;5054173;28;20029;-75
2022/10/05 01:21:09;;;;;;;0.20;0.20;;;9.70;99.90;;;;;;5052651;28;20037;-75
2022/10/05 01:24:30;;;;;;;0.13;0.13;;;9.70;99.90;;;;;;5069301;28;20028;-74
2022/10/05 01:27:33;;;;;;;0.20;0.20;;;9.70;99.90;;;;;;5059913;28;20033;-75
2022/10/05 01:30:12;;;;;;;0.10;0.10;;;9.80;99.90;;;;;;5052101;28;20029;-75
2022/10/05 01:32:44;;;;;;;0.40;0.40;;;9.70;99.90;;;;;;5053712;28;20032;-75
2022/10/05 01:35:24;;;;;;;0.10;0.10;;;9.70;99.90;;;;;;5053646;28;20040;-74
2022/10/05 01:38:01;;;;;;;0.10;0.10;;;9.70;99.90;;;;;;5053852;28;20029;-75
2022/10/05 01:40:50;;;;;;;0.17;0.17;;;9.50;99.90;;;;;;5052498;28;20021;-75
2022/10/05 01:43:37;;;;;;;0.13;0.13;;;9.40;99.90;;;;;;5053513;28;20024;-74
2022/10/05 01:46:23;;;;;;;0.20;0.20;;;9.30;99.90;;;;;;5053498;28;20025;-74
2022/10/05 01:49:04;;;;;;;0.85;0.85;;;9.30;99.90;;;;;;5062028;28;20087;-74
2022/10/05 01:51:32;;;;;;;0.20;0.20;;;9.20;99.90;;;;;;5053491;28;20480;-75
2022/10/05 01:54:30;;;;;;;0.10;0.10;;;9.20;99.90;;;;;;5034377;28;20034;-75
2022/10/05 01:57:05;;;;;;;0.20;0.20;;;9.20;99.90;;;;;;5037958;28;20041;-74
2022/10/05 01:59:30;;;;;;;0.10;0.10;;;9.20;99.90;;;;;;5063240;28;20049;-74
2022/10/05 02:02:12;;;;;;;0.10;0.10;;;9.20;99.90;;;;;;5043169;28;20056;-74
2022/10/05 02:04:44;;;;;;;0.20;0.20;;;9.10;99.90;;;;;;5039793;28;20104;-74
2022/10/05 02:07:26;;;;;;;0.10;0.10;;;9.10;99.90;;;;;;5033050;28;20013;-74
2022/10/05 02:10:15;;;;;;;0.20;0.20;;;9.00;99.90;;;;;;5031853;28;20033;-74
2022/10/05 02:12:42;;;;;;;0.55;0.30;;;9.00;99.90;;;;;;5033171;28;20026;-74
2022/10/05 02:15:15;;;;;;;0.22;0.20;;;9.10;99.90;;;;;;5032820;28;20056;-74
2022/10/05 02:17:46;;;;;;;0.63;0.63;;;9.10;99.90;;;;;;5031829;28;20029;-74
2022/10/05 02:20:21;;;;;;;0.30;0.30;;;9.10;99.90;;;;;;5034695;28;20034;-75
2022/10/05 02:22:51;;;;;;;0.85;0.85;;;9.10;99.90;;;;;;5052804;28;20057;-74
2022/10/05 02:25:26;;;;;;;0.20;0.20;;;9.00;99.90;;;;;;5052638;28;20016;-74
2022/10/05 02:28:25;;;;;;;0.20;0.20;;;9.10;99.90;;;;;;5052723;28;20021;-75
2022/10/05 02:31:00;;;;;;;0.10;0.10;;;9.10;99.90;;;;;;5055372;28;20041;-74
2022/10/05 02:33:28;;;;;;;0.38;0.30;;;9.20;99.90;;;;;;5052565;28;20055;-75
2022/10/05 02:36:19;;;;;;;0.30;0.30;;;9.20;99.90;;;;;;5052452;28;20109;-74
2022/10/05 02:38:58;;;;;;;0.20;0.20;;;9.30;99.90;;;;;;5051093;28;20127;-74
2022/10/05 02:41:52;;;;;;;0.30;0.30;;;9.30;99.90;;;;;;5033670;28;20420;-74
2022/10/05 02:45:01;;;;;;;0.35;0.35;;;9.30;99.90;;;;;;5052389;28;20540;-75
2022/10/05 02:47:34;;;;;;;0.20;0.20;;;9.20;99.90;;;;;;5050878;28;20036;-74
2022/10/05 02:50:09;;;;;;;0.43;0.43;;;9.10;99.90;;;;;;5052335;28;20025;-74
2022/10/05 02:52:52;;;;;;;0.20;0.20;;;9.10;99.90;;;;;;5052297;28;20032;-75
2022/10/05 02:55:48;;;;;;;0.20;0.20;;;9.20;99.90;;;;;;5051989;28;20401;-75
2022/10/05 02:58:27;;;;;;;0.17;0.17;;;9.10;99.90;;;;;;5052254;28;20025;-74
2022/10/05 03:01:04;;;;;;;0.25;0.25;;;9.00;99.90;;;;;;5052201;28;20389;-74
2022/10/05 03:03:38;;;;;;;0.20;0.20;;;8.90;99.90;;;;;;5051992;28;20021;-74
2022/10/05 03:06:13;;;;;;;0.38;0.38;;;8.90;99.90;;;;;;5052015;28;20029;-74
2022/10/05 03:09:04;;;;;;;0.47;0.32;;;9.00;99.90;;;;;;5052093;28;20024;-74
2022/10/05 03:11:47;;;;;;;0.20;0.20;;;9.00;99.90;;;;;;5051935;28;20024;-74
2022/10/05 03:14:17;;;;;;;0.20;0.20;;;9.00;99.90;;;;;;5051921;28;20033;-74
2022/10/05 03:17:04;;;;;;;0.65;0.65;;;9.10;99.90;;;;;;5051847;28;20028;-75
2022/10/05 03:19:41;;;;;;;0.50;0.50;;;9.20;99.90;;;;;;5051803;28;20052;-74
2022/10/05 03:22:10;;;;;;;0.30;0.30;;;9.10;99.90;;;;;;5051837;28;20025;-75
2022/10/05 03:24:45;;;;;;;0.20;0.20;;;9.10;99.90;;;;;;5050600;28;20017;-75
2022/10/05 03:27:28;;;;;;;0.10;0.10;;;9.10;99.90;;;;;;5050424;28;20052;-74
2022/10/05 03:30:03;;;;;;;0.30;0.30;;;9.10;99.90;;;;;;5051903;28;20033;-74
2022/10/05 03:32:35;;;;;;;0.20;0.20;;;9.10;99.90;;;;;;5051757;28;20427;-74
2022/10/05 03:35:13;;;;;;;0.32;0.32;;;9.10;99.90;;;;;;5051581;28;20029;-74
2022/10/05 03:37:48;;;;;;;0.20;0.20;;;9.10;99.90;;;;;;5051731;28;20455;-74
2022/10/05 03:40:35;;;;;;;0.40;0.30;;;9.10;99.90;;;;;;5051601;28;20021;-74
2022/10/05 03:43:24;;;;;;;0.20;0.20;;;9.10;99.90;;;;;;5050536;28;20043;-74
2022/10/05 03:46:07;;;;;;;0.20;0.20;;;9.10;99.90;;;;;;5059793;28;20037;-75
2022/10/05 03:48:51;;;;;;;0.30;0.30;;;9.00;99.90;;;;;;5051638;28;20439;-75
2022/10/05 03:51:23;;;;;;;0.25;0.25;;;9.10;99.90;;;;;;5051547;28;20025;-75
2022/10/05 03:53:55;;;;;;;0.20;0.20;;;9.10;99.90;;;;;;5055191;28;20048;-74
2022/10/05 03:56:32;;;;;;;0.20;0.20;;;9.10;99.90;;;;;;5054096;28;20040;-74
2022/10/05 03:59:10;;;;;;;0.20;0.20;;;9.20;99.90;;;;;;5055603;28;20025;-74
2022/10/05 04:01:52;;;;;;;0.40;0.40;;;9.20;99.90;;;;;;5055391;28;20388;-74
2022/10/05 04:04:36;;;;;;;0.13;0.13;;;9.10;99.90;;;;;;5055480;28;20021;-75
2022/10/05 04:07:03;;;;;;;0.98;0.63;;;9.10;99.90;;;;;;5055447;28;20465;-74
2022/10/05 04:09:35;;;;;;;0.30;0.30;;;9.10;99.90;;;;;;5055379;28;20096;-74
2022/10/05 04:12:01;;;;;;;;;;;9.10;99.90;;;;;;5054402;28;20127;-74
2022/10/05 04:14:35;;;;;;;0.20;0.20;;;9.10;99.90;;;;;;5055410;28;19922;-74
2022/10/05 04:17:11;;;;;;;0.38;0.10;;;9.10;99.90;;;;;;5055160;28;20376;-74
2022/10/05 04:19:43;;;;;;;0.20;0.20;;;9.10;99.90;;;;;;5054991;28;20040;-75
2022/10/05 04:22:14;;;;;;;0.30;0.30;;;9.10;99.90;;;;;;5053986;28;20025;-74
2022/10/05 04:25:15;;;;;;;0.75;0.40;;;9.10;99.90;;;;;;5037139;28;20401;-74
2022/10/05 04:27:45;;;;;;;0.17;0.17;;;9.20;99.90;;;;;;5025532;28;20040;-75
2022/10/05 04:30:16;;;;;;;0.10;0.10;;;9.20;99.90;;;;;;5036018;28;20030;-75
2022/10/05 04:32:51;;;;;;;0.47;0.40;;;9.20;99.90;;;;;;5054965;28;20112;-74
2022/10/05 04:35:54;;;;;;;0.20;0.20;;;9.10;99.90;;;;;;5053471;28;20035;-74
2022/10/05 04:38:54;;;;;;;0.20;0.20;;;9.00;99.90;;;;;;5054739;28;20029;-75
2022/10/05 04:41:52;;;;;;;0.10;0.10;;;8.90;99.90;;;;;;5054850;28;20032;-75
2022/10/05 04:44:46;;;;;;;0.20;0.20;;;8.90;99.90;;;;;;5042822;28;20063;-75
2022/10/05 04:47:29;;;;;;;0.10;0.10;;;8.80;99.90;;;;;;5034639;28;20026;-75
2022/10/05 04:50:22;;;;;;;1.13;1.13;;;8.80;99.90;;;;;;5033531;28;20053;-75
2022/10/05 04:53:15;;;;;;;0.32;0.32;;;8.80;99.90;;;;;;5034572;28;20159;-75
2022/10/05 04:56:14;;;;;;;0.57;0.57;;;8.80;99.90;;;;;;5035327;28;20091;-75
2022/10/05 04:59:20;;;;;;;2.20;0.50;;;8.80;99.90;;;;;;5054317;28;20025;-75
2022/10/05 05:02:23;;;;;;;0.20;0.20;;;8.80;99.90;;;;;;5052981;28;20116;-74
2022/10/05 05:05:21;;;;;;;0.20;0.20;;;8.90;99.90;;;;;;5053350;28;20523;-75
2022/10/05 05:08:26;;;;;;;0.20;0.20;;;8.90;99.90;;;;;;5054190;28;20029;-75
2022/10/05 05:11:22;;;;;;;0.20;0.20;;;8.90;99.90;;;;;;5046480;28;20025;-75
2022/10/05 05:14:25;;;;;;;2.40;2.30;;;8.90;99.90;;;;;;5030045;28;20087;-75
2022/10/05 05:17:09;;;;;;;0.68;0.22;;;8.90;99.90;;;;;;5048374;28;20113;-75
2022/10/05 05:19:52;;;;;;;0.25;0.25;;;8.90;99.90;;;;;;5034079;28;20037;-75
2022/10/05 05:22:30;;;;;;;0.45;0.45;;;9.00;99.90;;;;;;5032589;28;20477;-75
2022/10/05 05:25:18;;;;;;;3.83;0.57;;;9.10;99.90;;;;;;5034189;28;20026;-75
2022/10/05 05:28:07;;;;;;;0.20;0.20;;;9.10;99.90;;;;;;5036064;28;20025;-75
2022/10/05 05:30:41;;;;;;;0.30;0.30;;;9.20;99.90;;;;;;5032649;28;20025;-75
2022/10/05 05:33:34;;;;;;;1.00;1.00;;;9.20;99.90;;;;;;5033770;28;20117;-75
2022/10/05 05:36:44;;;;;;;0.55;0.45;;;9.30;99.90;;;;;;5033577;28;20029;-75
2022/10/05 05:39:23;;;;;;;1.15;1.10;;;9.30;99.90;;;;;;5032442;28;20037;-75
2022/10/05 05:42:00;;;;;;;0.20;0.20;;;9.30;99.90;;;;;;5043217;28;20025;-75
2022/10/05 05:44:40;;;;;;;0.25;0.25;;;9.30;99.90;;;;;;5047000;28;20098;-75
2022/10/05 05:47:19;;;;;;;0.85;0.30;;;9.40;99.90;;;;;;5041513;28;20017;-75
2022/10/05 05:50:16;;;;;;;0.35;0.35;;;9.40;99.90;;;;;;5045883;28;20913;-73
2022/10/05 05:52:55;;;;;;;0.40;0.40;;;9.40;99.90;;;;;;5052310;28;20031;-72
2022/10/05 05:55:25;;;;;;;0.45;0.45;;;9.40;99.90;;;;;;5045395;28;20025;-73
2022/10/05 05:58:16;;;;;;;0.90;0.75;;;9.40;99.90;;;;;;5033337;28;20029;-72
2022/10/05 06:01:04;;;;;;;0.40;0.40;;;9.50;99.90;;;;;;5032694;28;20497;-73
2022/10/05 06:03:39;;;;;;;1.75;0.50;;;9.60;99.90;;;;;;5035006;28;20074;-73
2022/10/05 06:06:09;;;;;;;0.52;0.52;;;9.60;99.90;;;;;;5053059;28;20480;-75
2022/10/05 06:08:39;;;;;;;0.20;0.20;;;9.60;99.90;;;;;;5052883;28;20100;-74
2022/10/05 06:11:15;;;;;;;0.20;0.20;;;9.70;99.90;;;;;;5053107;28;20614;-74
2022/10/05 06:13:42;;;;;;;0.43;0.43;;;9.80;99.90;;;;;;5052978;28;20017;-74
2022/10/05 06:16:11;;;;;;;0.40;0.40;;;9.90;99.90;;;;;;5052513;28;20400;-74
2022/10/05 06:18:42;;;;;;;0.98;0.98;;;10.00;99.90;;;;;;5052802;28;20025;-74
2022/10/05 06:21:30;;;;;;;40.85;1.65;;;10.10;99.90;;;;;;5051173;28;20035;-74
2022/10/05 06:24:17;;;;;;;0.35;0.35;;;10.10;99.90;;;;;;5051265;28;20052;-74
2022/10/05 06:27:01;;;;;;;0.45;0.45;;;10.20;99.90;;;;;;5052488;28;20021;-74
2022/10/05 06:29:54;;;;;;;0.20;0.20;;;10.30;99.90;;;;;;5051451;28;20036;-74
2022/10/05 06:32:43;;;;;;;0.38;0.38;;;10.40;99.90;;;;;;5052413;28;20032;-75
2022/10/05 06:35:54;;;;;;;0.20;0.20;;;10.50;99.90;;;;;;5052152;28;20017;-75
2022/10/05 06:38:19;;;;;;;0.45;0.45;;;10.70;99.90;;;;;;5052516;28;20507;-75
2022/10/05 06:41:09;;;;;;;0.70;0.30;;;10.80;99.90;;;;;;5052192;28;20032;-74
2022/10/05 06:43:45;;;;;;;0.47;0.47;;;10.90;99.90;;;;;;5052379;28;20473;-74
2022/10/05 06:46:35;;;;;;;0.10;0.10;;;11.00;99.90;;;;;;5052165;28;20021;-74
2022/10/05 06:49:15;;;;;;;0.40;0.40;;;11.00;99.90;;;;;;5050942;28;20032;-74
2022/10/05 06:51:46;;;;;;;0.30;0.30;;;11.20;99.90;;;;;;5052293;28;20025;-75
2022/10/05 06:54:34;;;;;;;0.52;0.38;;;11.20;99.90;;;;;;5043581;28;20112;-75
2022/10/05 06:57:14;;;;;;;1.02;0.40;;;11.30;99.90;;;;;;5032311;28;20091;-74
2022/10/05 07:00:04;;;;;;;1.88;0.20;;;11.30;99.90;;;;;;5030631;28;20508;-74
2022/10/05 07:03:02;;;;;;;0.20;0.20;;;11.40;99.90;;;;;;5035578;28;20021;-74
2022/10/05 07:05:51;;;;;;;0.20;0.20;;;11.40;99.90;;;;;;5009174;28;20040;-75
2022/10/05 07:08:34;;;;;;;0.17;0.17;;;11.50;99.90;;;;;;5031560;28;20056;-74
2022/10/05 07:11:25;;;;;;;0.10;0.10;;;11.60;99.90;;;;;;5030577;28;20029;-75
2022/10/05 07:14:21;;;;;;;0.10;0.10;;;11.80;99.90;;;;;;5014189;28;20022;-75
2022/10/05 07:17:17;;;;;;;0.10;0.10;;;11.80;99.90;;;;;;5030521;28;20079;-74
2022/10/05 07:20:21;;;;;;;0.20;0.20;;;12.00;99.90;;;;;;5031337;28;20100;-74
2022/10/05 07:23:02;;;;;;;0.10;0.10;;;12.10;99.90;;;;;;5025063;28;20029;-74
2022/10/05 07:25:43;;;;;;;0.10;0.10;;;12.20;99.90;;;;;;5030278;28;20025;-74
2022/10/05 07:28:14;;;;;;;0.30;0.30;;;12.30;99.90;;;;;;5031389;28;20056;-74
2022/10/05 07:30:55;;;;;;;0.10;0.10;;;12.50;99.90;;;;;;5013770;28;20398;-73
2022/10/05 07:33:26;;;;;;;0.10;0.10;;;12.60;99.90;;;;;;5031524;28;20030;-74
2022/10/05 07:39:05;;;;;;;0.20;0.20;;;12.80;99.90;;;;;;5030437;28;20026;-74
2022/10/05 07:41:49;;;;;;;0.20;0.20;;;13.00;99.90;;;;;;5031638;28;20034;-75
2022/10/05 07:44:42;;;;;;;0.30;0.30;;;13.10;99.90;;;;;;5031584;28;20026;-76
2022/10/05 07:47:17;;;;;;;0.32;0.32;;;13.20;99.90;;;;;;5031332;28;20018;-75
2022/10/05 07:50:06;;;;;;;0.10;0.10;;;13.30;99.90;;;;;;5037784;28;20021;-74
2022/10/05 07:52:42;;;;;;;0.20;0.20;;;13.50;99.90;;;;;;5051436;28;20037;-75
2022/10/05 07:55:36;;;;;;;0.10;0.10;;;13.50;99.90;;;;;;5044163;28;20038;-75
2022/10/05 07:58:21;;;;;;;0.10;0.10;;;13.60;99.90;;;;;;5030804;28;20104;-75
2022/10/05 08:01:10;;;;;;;0.15;0.15;;;13.70;99.90;;;;;;5031455;28;20033;-75
2022/10/05 08:03:59;;;;;;;0.10;0.10;;;13.90;99.90;;;;;;5033862;28;20023;-75
2022/10/05 08:06:57;;;;;;;0.13;0.10;;;14.00;99.90;;;;;;5051196;28;20025;-75
2022/10/05 08:09:41;;;;;;;0.10;0.10;;;14.20;99.90;;;;;;5051170;28;20084;-75
2022/10/05 08:12:30;;;;;;;0.10;0.10;;;14.30;99.90;;;;;;5051394;28;20036;-74
2022/10/05 08:15:24;;;;;;;0.10;0.10;;;14.40;99.90;;;;;;5049771;28;20033;-76
2022/10/05 08:18:04;;;;;;;0.10;0.10;;;14.50;99.90;;;;;;5031466;28;20057;-75
2022/10/05 08:20:56;;;;;;;0.10;0.10;;;14.70;99.90;;;;;;5046475;28;20033;-75
2022/10/05 08:23:52;;;;;;;0.25;0.25;;;14.70;99.90;;;;;;5036344;28;20017;-75
2022/10/05 08:26:43;;;;;;;0.20;0.20;;;14.90;99.90;;;;;;5050979;28;20029;-75
2022/10/05 08:29:18;;;;;;;0.10;0.10;;;14.90;99.90;;;;;;5049755;28;20024;-76
2022/10/05 08:31:50;;;;;;;0.43;0.43;;;15.10;99.90;;;;;;5051184;28;20036;-75
2022/10/05 08:34:28;;;;;;;;;;;15.20;99.90;;;;;;5051515;28;20029;-75
2022/10/05 08:37:21;;;;;;;0.10;0.10;;;15.30;99.90;;;;;;5049606;28;19912;-75
2022/10/05 08:40:20;;;;;;;0.10;0.10;;;15.40;99.90;;;;;;5053348;28;20071;-75
2022/10/05 08:43:20;;;;;;;0.10;0.10;;;15.50;99.90;;;;;;5054852;28;20704;-73
2022/10/05 08:46:23;;;;;;;0.10;0.10;;;15.70;99.90;;;;;;5054214;28;20405;-77
2022/10/05 08:49:10;;;;;;;0.10;0.10;;;15.80;99.90;;;;;;5053254;28;20018;-75
2022/10/05 08:51:58;;;;;;;0.10;0.10;;;16.00;99.90;;;;;;5051483;28;20100;-75
2022/10/05 08:54:32;;;;;;;0.10;0.10;;;16.20;99.90;;;;;;5050849;28;20029;-75
2022/10/05 08:57:13;;;;;;;0.10;0.10;;;16.30;99.90;;;;;;5034278;28;20036;-76
2022/10/05 09:00:22;;;;;;;0.00;0.00;;;16.40;99.90;;;;;;5037143;28;20504;-75
2022/10/05 09:03:07;;;;;;;0.10;0.10;;;16.60;99.90;;;;;;5056662;28;20021;-76
2022/10/05 09:05:47;;;;;;;0.10;0.10;;;17.10;99.90;;;;;;5052272;28;20586;-76
2022/10/05 09:08:47;;;;;;;0.10;0.10;;;17.50;99.90;;;;;;5054121;28;20071;-76
2022/10/05 09:11:39;;;;;;;0.85;0.85;;;18.00;99.90;;;;;;5050873;28;20029;-76
2022/10/05 09:14:24;;;;;;;1.15;1.05;;;18.60;99.90;;;;;;5051927;28;20033;-75
2022/10/05 09:17:09;;;;;;;0.00;0.00;;;19.00;99.90;;;;;;5052066;28;20094;-75
2022/10/05 09:20:05;;;;;;;0.10;0.10;;;19.50;99.90;;;;;;5052181;28;20044;-75
2022/10/05 09:22:39;;;;;;;0.00;0.00;;;19.70;99.90;;;;;;5053542;28;20481;-75
2022/10/05 09:25:44;;;;;;;0.00;0.00;;;19.90;99.90;;;;;;5052192;28;20025;-75
2022/10/05 09:28:36;;;;;;;0.10;0.10;;;20.10;99.90;;;;;;5052176;28;20384;-74
2022/10/05 09:31:44;;;;;;;0.00;0.00;;;20.40;99.90;;;;;;5053621;28;20032;-75
2022/10/05 09:34:41;;;;;;;0.00;0.00;;;20.50;99.90;;;;;;5051415;28;20063;-74
2022/10/05 09:37:36;;;;;;;0.00;0.00;;;20.40;98.50;;;;;;5052130;28;20032;-74
2022/10/05 09:40:35;;;;;;;0.10;0.10;;;20.70;97.00;;;;;;5056862;28;20049;-74
2022/10/05 09:43:37;;;;;;;0.05;0.05;;;21.20;95.90;;;;;;5053509;28;20033;-75
2022/10/05 09:46:25;;;;;;;1.95;1.80;;;21.50;93.90;;;;;;5051997;28;20028;-75
2022/10/05 09:49:00;;;;;;;0.22;0.22;;;21.60;93.40;;;;;;5035537;28;20071;-75
2022/10/05 09:51:29;;;;;;;0.00;0.00;;;21.70;93.30;;;;;;5051145;28;20484;-75
2022/10/05 09:54:13;;;;;;;0.00;0.00;;;21.90;92.80;;;;;;5052698;28;20393;-75
2022/10/05 09:57:22;;;;;;;0.00;0.00;;;22.10;91.30;;;;;;5053162;28;20441;-75
2022/10/05 10:00:39;;;;;;;0.00;0.00;;;22.60;90.30;;;;;;5050924;28;20033;-75
2022/10/05 10:03:49;;;;;;;0.90;0.90;;;22.80;79.90;;;;;;5035099;28;20029;-75
2022/10/05 10:06:37;;;;;;;0.00;0.00;;;23.20;77.60;;;;;;5039648;28;20507;-75
2022/10/05 10:09:09;;;;;;;0.60;0.38;;;23.60;74.90;;;;;;5053133;28;20037;-75
2022/10/05 10:11:55;;;;;;;0.00;0.00;;;23.40;63.30;;;;;;5051649;28;20029;-75
2022/10/05 10:14:44;;;;;;;0.52;0.38;;;23.40;63.20;;;;;;5051704;28;20400;-75
2022/10/05 10:17:31;;;;;;;0.10;0.10;;;23.70;62.20;;;;;;5050414;28;20396;-75
2022/10/05 10:20:21;;;;;;;0.00;0.00;;;24.00;59.00;;;;;;5051073;28;20124;-75
2022/10/05 10:22:54;;;;;;;0.00;0.00;;;24.00;59.60;;;;;;5044921;28;20095;-75
2022/10/05 10:26:11;;;;;;;0.00;0.00;;;24.30;58.90;;;;;;5052393;28;20456;-75
2022/10/05 10:29:04;;;;;;;0.32;0.28;;;24.80;58.40;;;;;;5058211;28;20044;-75
2022/10/05 10:31:42;;;;;;;0.00;0.00;;;24.80;56.50;;;;;;5052338;28;20477;-75
2022/10/05 10:34:27;;;;;;;0.68;0.13;;;24.90;56.40;;;;;;5051101;28;20025;-75
2022/10/05 10:37:31;;;;;;;0.00;0.00;;;25.40;53.90;;;;;;5050698;28;20115;-75
2022/10/05 10:39:59;;;;;;;0.00;0.00;;;25.30;54.30;;;;;;5050040;28;20025;-75
2022/10/05 10:42:58;;;;;;;0.20;0.20;;;25.30;53.40;;;;;;5031608;28;20116;-75
2022/10/05 10:45:53;;;;;;;0.00;0.00;;;24.60;52.80;;;;;;5043278;28;20036;-76
2022/10/05 10:48:22;;;;;;;0.00;0.00;;;24.80;53.60;;;;;;5032354;28;20021;-75
2022/10/05 10:51:12;;;;;;;0.10;0.10;;;24.70;53.70;;;;;;5042374;28;20431;-75
2022/10/05 10:53:41;;;;;;;0.33;0.33;;;25.20;53.70;;;;;;5051808;28;20021;-75
2022/10/05 10:56:43;;;;;;;0.20;0.20;;;25.60;53.70;;;;;;5044137;28;20111;-75
2022/10/05 10:59:23;;;;;;;0.00;0.00;;;25.60;51.70;;;;;;5032151;28;20029;-75
2022/10/05 11:02:15;;;;;;;0.47;0.47;;;24.70;53.70;;;;;;5031536;28;20068;-76
2022/10/05 11:04:52;;;;;;;0.00;0.00;;;24.80;52.90;;;;;;5033021;28;20021;-75
2022/10/05 11:07:38;;;;;;;0.00;0.00;;;24.90;53.30;;;;;;5030864;28;20065;-76
2022/10/05 11:10:35;;;;;;;0.00;0.00;;;24.80;53.30;;;;;;5032111;28;20095;-76
2022/10/05 11:13:51;;;;;;;0.00;0.00;;;24.80;54.70;;;;;;5030483;28;20033;-75
2022/10/05 11:16:58;;;;;;;0.00;0.00;;;25.40;53.20;;;;;;5029212;28;20034;-76
2022/10/05 11:19:50;;;;;;;0.00;0.00;;;26.00;52.10;;;;;;5009375;28;20026;-75
2022/10/05 11:23:03;;;;;;;0.10;0.10;;;25.90;52.80;;;;;;5009826;28;20034;-75
2022/10/05 11:26:00;;;;;;;0.05;0.05;;;25.40;52.50;;;;;;4997029;28;20068;-75
2022/10/05 11:28:51;;;;;;;0.00;0.00;;;25.40;52.70;;;;;;5047205;28;20032;-76
2022/10/05 11:31:36;;;;;;;0.00;0.00;;;25.40;53.00;;;;;;5051399;28;20037;-75
2022/10/05 11:34:11;;;;;;;0.13;0.10;;;25.50;51.70;;;;;;5051243;28;20509;-76
2022/10/05 11:36:58;;;;;;;0.00;0.00;;;25.20;51.80;;;;;;5051541;28;20484;-76
2022/10/05 11:39:57;;;;;;;0.00;0.00;;;25.10;53.40;;;;;;5050062;28;20028;-76
2022/10/05 11:42:50;;;;;;;0.00;0.00;;;25.00;54.00;;;;;;5046117;28;20040;-76
2022/10/05 11:45:21;;;;;;;0.00;0.00;;;24.90;53.20;;;;;;5036762;28;20027;-75
2022/10/05 11:48:09;;;;;;;0.32;0.10;;;25.30;53.80;;;;;;5048322;28;20017;-75
2022/10/05 11:50:53;;;;;;;0.00;0.00;;;25.10;53.60;;;;;;5033276;28;20040;-75
2022/10/05 11:53:37;;;;;;;0.20;0.20;;;25.50;53.50;;;;;;5032334;28;20056;-75
2022/10/05 11:56:15;;;;;;;0.20;0.20;;;25.80;52.70;;;;;;5031410;28;20055;-75
2022/10/05 11:59:13;;;;;;;0.00;0.00;;;26.00;53.20;;;;;;5031091;28;20485;-75
2022/10/05 12:01:58;;;;;;;0.00;0.00;;;26.10;51.90;;;;;;5031536;28;20053;-73
2022/10/05 12:04:52;;;;;;;0.05;0.05;;;26.20;54.00;;;;;;5031061;28;20030;-75
2022/10/05 12:07:18;;;;;;;0.00;0.00;;;26.00;54.90;;;;;;5030878;28;20025;-76
2022/10/05 12:10:12;;;;;;;1.65;0.30;;;25.90;54.00;;;;;;5011283;28;20125;-76
2022/10/05 12:12:39;;;;;;;0.00;0.00;;;25.80;52.80;;;;;;5029035;28;20021;-73
2022/10/05 12:15:12;;;;;;;0.00;0.00;;;25.60;54.00;;;;;;5033581;28;20037;-75
2022/10/05 12:17:50;;;;;;;0.17;0.15;;;25.60;53.40;;;;;;5033274;28;20505;-75
2022/10/05 12:20:39;;;;;;;0.08;0.08;;;25.80;52.70;;;;;;5053373;28;20032;-75
2022/10/05 12:23:27;;;;;;;0.00;0.00;;;25.90;52.00;;;;;;5050202;28;20021;-76
2022/10/05 12:26:05;;;;;;;0.00;0.00;;;25.80;51.80;;;;;;5034603;28;20067;-75
2022/10/05 12:28:54;;;;;;;0.40;0.22;;;25.50;52.50;;;;;;5051958;28;20021;-75
2022/10/05 12:31:45;;;;;;;0.00;0.00;;;25.30;52.60;;;;;;5035536;28;20096;-75
2022/10/05 12:34:43;;;;;;;0.10;0.10;;;24.60;54.40;;;;;;5034718;28;20655;-75
2022/10/05 12:37:15;;;;;;;0.00;0.00;;;24.80;54.80;;;;;;5032420;28;20367;-75
2022/10/05 12:39:55;;;;;;;0.00;0.00;;;25.00;55.20;;;;;;5035193;28;20036;-75
2022/10/05 12:42:38;;;;;;;0.00;0.00;;;25.00;54.90;;;;;;5034397;28;20028;-75
2022/10/05 12:45:38;;;;;;;0.00;0.00;;;25.00;55.00;;;;;;5033210;28;20025;-75
2022/10/05 12:48:13;;;;;;;0.00;0.00;;;25.20;55.60;;;;;;5034346;28;20032;-75
2022/10/05 12:50:42;;;;;;;0.00;0.00;;;25.30;53.70;;;;;;5033198;28;20029;-75
2022/10/05 12:53:39;;;;;;;0.30;0.30;;;24.90;55.30;;;;;;5034500;28;20052;-75
2022/10/05 12:56:16;;;;;;;0.00;0.00;;;24.50;55.30;;;;;;5034315;28;20087;-75
2022/10/05 12:58:58;;;;;;;0.00;0.00;;;24.30;57.40;;;;;;5043831;28;20024;-75
2022/10/05 13:01:55;;;;;;;0.00;0.00;;;23.80;56.40;;;;;;5050395;28;20426;-75
2022/10/05 13:04:53;;;;;;;0.00;0.00;;;23.70;57.70;;;;;;5053701;28;20024;-75
2022/10/05 13:07:37;;;;;;;0.30;0.30;;;23.80;57.90;;;;;;5021491;28;20125;-75
2022/10/05 13:10:12;;;;;;;0.00;0.00;;;23.60;57.90;;;;;;5035424;28;20032;-75
2022/10/05 13:12:40;;;;;;;0.70;0.70;;;23.50;59.00;;;;;;5050899;28;20026;-75
2022/10/05 13:15:21;;;;;;;0.00;0.00;;;23.50;58.90;;;;;;5048701;28;20040;-75
2022/10/05 13:17:57;;;;;;;0.00;0.00;;;23.50;59.30;;;;;;5030868;28;20087;-75
2022/10/05 13:20:34;;;;;;;0.00;0.00;;;23.50;57.90;;;;;;5036697;28;20094;-75
2022/10/05 13:23:30;;;;;;;0.00;0.00;;;23.50;58.20;;;;;;5053967;28;20477;-76
2022/10/05 13:26:25;;;;;;;0.00;0.00;;;23.30;58.50;;;;;;5046941;28;20401;-75
2022/10/05 13:29:22;;;;;;;0.00;0.00;;;23.30;58.70;;;;;;5033655;28;20079;-75
2022/10/05 13:31:59;;;;;;;0.40;0.40;;;23.30;57.90;;;;;;5033605;28;20036;-75
2022/10/05 13:35:01;;;;;;;0.10;0.10;;;22.90;58.70;;;;;;5044212;28;20024;-76
2022/10/05 13:37:37;;;;;;;0.00;0.00;;;22.90;59.60;;;;;;5053408;28;20044;-76
2022/10/05 13:40:30;;;;;;;0.00;0.00;;;23.00;59.80;;;;;;5035136;28;20490;-75
2022/10/05 13:43:05;;;;;;;0.00;0.00;;;23.00;59.60;;;;;;5032958;28;20022;-75
2022/10/05 13:45:51;;;;;;;0.00;0.00;;;23.10;58.90;;;;;;5015696;28;20047;-75
2022/10/05 13:48:48;;;;;;;0.00;0.00;;;23.20;59.00;;;;;;5051491;28;20416;-75
2022/10/05 13:51:22;;;;;;;0.00;0.00;;;23.30;59.00;;;;;;5051550;28;20095;-76
2022/10/05 13:54:12;;;;;;;0.00;0.00;;;23.40;59.20;;;;;;5053035;28;20028;-75
2022/10/05 13:57:16;;;;;;;0.00;0.00;;;23.40;58.50;;;;;;5049825;28;20465;-76
2022/10/05 13:59:54;;;;;;;0.00;0.00;;;23.50;59.00;;;;;;5035200;28;20099;-76
2022/10/05 14:02:26;;;;;;;1.45;0.40;;;23.30;58.90;;;;;;5033310;28;20110;-75
2022/10/05 14:05:16;;;;;;;0.75;0.55;;;23.10;58.60;;;;;;5033241;28;20362;-75
2022/10/05 14:07:50;;;;;;;0.00;0.00;;;22.90;58.90;;;;;;5040233;28;20013;-76
2022/10/05 14:10:39;;;;;;;0.00;0.00;;;22.70;60.30;;;;;;5051976;28;20037;-76
2022/10/05 14:13:20;;;;;;;0.00;0.00;;;22.80;61.10;;;;;;5045427;28;20563;-75
2022/10/05 14:15:58;;;;;;;0.05;0.05;;;23.00;61.20;;;;;;5032218;28;20109;-75
2022/10/05 14:18:27;;;;;;;0.20;0.10;;;23.20;61.40;;;;;;5043345;28;20029;-76
2022/10/05 14:21:08;;;;;;;0.00;0.00;;;23.20;60.20;;;;;;5040988;28;20030;-75
2022/10/05 14:23:34;;;;;;;0.00;0.00;;;23.20;60.80;;;;;;5050513;28;20047;-75